Fremont Valley, California
Current Conditions -  °F | °C
As of 5:35 AM on Saturday 22 Nov 2014 (Local Time) from KMHV Reporting Station
Clear Clear  
Wind Chill: 40°   Ceiling: Unl
Heat Index: 45°   Visibility: 10mi
Dew Point: 32°   Wind: 8mph
Humidity: 61%   Direction: 40°NE
Pressure: 30.08"   Gusts: NA
Location:  35.0508°N, 118.171°W
Report Text: KMHV 221335Z AUTO 04007KT 10SM CLR 07/00 A3008 RMK AO1
Loading
Personal Weather Stations






























Interactive Weather Map New forecast layout! Learn more

10-Day Weather Forecast

Advertisements
Track Severe Weather on mobile